Time;durP1;ratioP1;P1;durP2;ratioP2;P2;SDS_P1;SDS_P2;PMS_P1;PMS_P2;Temp;Humidity;BMP_temperature;BMP_pressure;BME280_temperature;BME280_humidity;BME280_pressure;Samples;Min_cycle;Max_cycle;Signal;HPM_P1;HPM_P2
2022/04/04 00:00:07;;;;;;;41.00;17.77;;;;;;;;;;4906003;29;20029;-96
2022/04/04 00:02:33;;;;;;;37.88;18.27;;;;;;;;;;4904820;29;20032;-96
2022/04/04 00:04:59;;;;;;;37.15;18.15;;;;;;;;;;4887361;29;20025;-95
2022/04/04 00:07:25;;;;;;;39.47;19.02;;;;;;;;;;4886946;29;20021;-96
2022/04/04 00:09:51;;;;;;;40.35;18.70;;;;;;;;;;4870587;29;20025;-94
2022/04/04 00:12:29;;;;;;;33.17;16.60;;;;;;;;;;4889035;29;20029;-96
2022/04/04 00:14:56;;;;;;;37.20;16.20;;;;;;;;;;4894651;29;20033;-95
2022/04/04 00:17:22;;;;;;;35.47;16.88;;;;;;;;;;4875100;29;20057;-96
2022/04/04 00:19:48;;;;;;;23.98;14.75;;;;;;;;;;4875593;29;20121;-96
2022/04/04 00:22:14;;;;;;;24.33;14.30;;;;;;;;;;4894203;29;20033;-96
2022/04/04 00:24:41;;;;;;;25.15;13.35;;;;;;;;;;4891361;29;20029;-96
2022/04/04 00:27:07;;;;;;;24.50;13.50;;;;;;;;;;4886929;29;20431;-96
2022/04/04 00:29:33;;;;;;;24.05;14.45;;;;;;;;;;4870390;29;20093;-96
2022/04/04 00:31:59;;;;;;;28.58;15.32;;;;;;;;;;4886714;29;20045;-95
2022/04/04 00:34:25;;;;;;;25.00;15.05;;;;;;;;;;4886791;29;20037;-96
2022/04/04 00:36:51;;;;;;;28.95;14.02;;;;;;;;;;4887110;29;20085;-94
2022/04/04 00:39:19;;;;;;;28.73;14.50;;;;;;;;;;4887011;29;20033;-94
2022/04/04 00:41:49;;;;;;;24.77;13.93;;;;;;;;;;4886670;29;20036;-96
2022/04/04 00:44:15;;;;;;;21.77;13.50;;;;;;;;;;4886454;29;20049;-94
2022/04/04 00:46:42;;;;;;;23.67;13.23;;;;;;;;;;4886559;29;20094;-94
2022/04/04 00:49:09;;;;;;;24.90;13.65;;;;;;;;;;4886986;29;20029;-95
2022/04/04 00:51:36;;;;;;;23.45;12.93;;;;;;;;;;4886402;29;20025;-96
2022/04/04 00:54:03;;;;;;;21.63;12.32;;;;;;;;;;4869833;29;20025;-95
2022/04/04 00:56:31;;;;;;;20.00;13.10;;;;;;;;;;4869729;29;20033;-96
2022/04/04 00:58:57;;;;;;;21.38;13.32;;;;;;;;;;4886074;29;20132;-95
2022/04/04 01:01:26;;;;;;;20.83;13.18;;;;;;;;;;4891492;29;20041;-96
2022/04/04 01:46:58;;;;;;;21.08;11.63;;;;;;;;;;4887745;29;20362;-95
2022/04/04 01:49:24;;;;;;;23.33;12.55;;;;;;;;;;4885574;29;20065;-95
2022/04/04 01:51:51;;;;;;;20.60;12.68;;;;;;;;;;4885320;29;20029;-96
2022/04/04 01:54:17;;;;;;;21.00;11.65;;;;;;;;;;4869224;29;20043;-96
2022/04/04 01:56:43;;;;;;;21.35;12.60;;;;;;;;;;4886627;29;20442;-95
2022/04/04 01:59:09;;;;;;;17.35;11.65;;;;;;;;;;4885827;29;20043;-96
2022/04/04 02:01:36;;;;;;;19.65;11.30;;;;;;;;;;4886376;29;20055;-96
2022/04/04 02:04:03;;;;;;;25.23;13.23;;;;;;;;;;4874403;29;20030;-94
2022/04/04 02:06:29;;;;;;;23.60;12.77;;;;;;;;;;4868176;29;20421;-94
2022/04/04 02:08:55;;;;;;;26.98;13.82;;;;;;;;;;4866405;29;20320;-94
2022/04/04 02:11:22;;;;;;;30.00;14.38;;;;;;;;;;4866527;29;20340;-94
2022/04/04 02:13:48;;;;;;;31.02;14.02;;;;;;;;;;4850098;29;20034;-94
2022/04/04 02:16:15;;;;;;;30.25;13.60;;;;;;;;;;4854437;29;20037;-96
2022/04/04 02:18:41;;;;;;;27.38;13.05;;;;;;;;;;4870763;29;20033;-95
2022/04/04 02:21:27;;;;;;;23.75;12.68;;;;;;;;;;4854261;29;20033;-95
2022/04/04 02:23:53;;;;;;;25.58;13.18;;;;;;;;;;4870909;29;20029;-95
2022/04/04 02:26:21;;;;;;;30.67;14.05;;;;;;;;;;4868702;29;20093;-95
2022/04/04 02:28:47;;;;;;;27.13;13.25;;;;;;;;;;4866580;29;20022;-95
2022/04/04 02:31:13;;;;;;;28.80;14.07;;;;;;;;;;4875041;29;20026;-95
2022/04/04 02:33:52;;;;;;;29.65;13.63;;;;;;;;;;4859301;29;20045;-95
2022/04/04 02:39:57;;;;;;;34.33;15.55;;;;;;;;;;4876307;29;20065;-94
2022/04/04 02:45:14;;;;;;;34.95;15.10;;;;;;;;;;4874008;29;20076;-95
2022/04/04 02:47:43;;;;;;;21.80;12.38;;;;;;;;;;4875780;29;20017;-96
2022/04/04 03:13:40;;;;;;;21.05;13.82;;;;;;;;;;4864949;29;20531;-96
2022/04/04 03:16:06;;;;;;;20.13;13.57;;;;;;;;;;4865103;29;20412;-93
2022/04/04 03:18:34;;;;;;;20.48;14.18;;;;;;;;;;4865310;29;20030;-95
2022/04/04 03:21:00;;;;;;;25.27;15.27;;;;;;;;;;4864997;29;20037;-95
2022/04/04 03:23:27;;;;;;;19.80;14.98;;;;;;;;;;4864216;29;20055;-96
2022/04/04 03:25:55;;;;;;;27.95;18.15;;;;;;;;;;4868741;29;20029;-96
2022/04/04 03:28:32;;;;;;;29.05;19.13;;;;;;;;;;4873071;29;20032;-96
2022/04/04 03:30:58;;;;;;;30.45;19.90;;;;;;;;;;4872234;29;20037;-96
2022/04/04 03:33:27;;;;;;;38.30;20.52;;;;;;;;;;4874113;29;20038;-96
2022/04/04 03:35:53;;;;;;;39.13;20.70;;;;;;;;;;4870673;29;20038;-96
2022/04/04 03:38:19;;;;;;;32.60;20.45;;;;;;;;;;4868946;29;20044;-95
2022/04/04 03:40:45;;;;;;;35.80;20.80;;;;;;;;;;4865451;29;20062;-95
2022/04/04 03:43:12;;;;;;;34.53;21.52;;;;;;;;;;4865897;29;20046;-96
2022/04/04 03:45:38;;;;;;;43.15;23.42;;;;;;;;;;4868899;29;20025;-96
2022/04/04 03:48:04;;;;;;;44.58;22.95;;;;;;;;;;4866575;29;20059;-96
2022/04/04 03:50:37;;;;;;;39.72;21.25;;;;;;;;;;4866143;29;20026;-96
2022/04/04 03:53:04;;;;;;;34.92;20.58;;;;;;;;;;4873223;29;20408;-95
2022/04/04 03:55:31;;;;;;;40.25;22.08;;;;;;;;;;4856263;29;20435;-96
2022/04/04 03:57:58;;;;;;;42.58;23.50;;;;;;;;;;4858420;29;20410;-96
2022/04/04 04:03:34;;;;;;;45.90;25.48;;;;;;;;;;5647067;23;20053;-96
2022/04/04 04:06:14;;;;;;;56.55;27.58;;;;;;;;;;4867630;29;20172;-95
2022/04/04 04:11:17;;;;;;;51.60;27.83;;;;;;;;;;4927423;23;20133;-95
2022/04/04 04:13:44;;;;;;;53.80;30.17;;;;;;;;;;4865053;29;20030;-95
2022/04/04 04:16:11;;;;;;;61.30;32.20;;;;;;;;;;4864688;29;20434;-95
2022/04/04 04:18:38;;;;;;;65.60;32.60;;;;;;;;;;4848521;29;20029;-95
2022/04/04 04:21:04;;;;;;;68.28;34.53;;;;;;;;;;4864762;29;20032;-94
2022/04/04 04:23:30;;;;;;;67.07;33.50;;;;;;;;;;4864658;29;20040;-94
2022/04/04 04:25:56;;;;;;;67.28;33.65;;;;;;;;;;4848506;29;20377;-94
2022/04/04 04:28:23;;;;;;;72.72;33.50;;;;;;;;;;4865043;29;20112;-96
2022/04/04 04:30:49;;;;;;;73.47;35.83;;;;;;;;;;4864769;29;20026;-95
2022/04/04 04:33:15;;;;;;;70.80;35.83;;;;;;;;;;4866528;29;20068;-95
2022/04/04 04:35:41;;;;;;;78.43;37.90;;;;;;;;;;4867941;29;20032;-95
2022/04/04 04:38:07;;;;;;;77.20;39.35;;;;;;;;;;4851996;29;20118;-95
2022/04/04 04:40:34;;;;;;;78.82;39.53;;;;;;;;;;4868195;29;20041;-95
2022/04/04 04:43:00;;;;;;;77.35;38.75;;;;;;;;;;4851540;29;20484;-95
2022/04/04 04:45:27;;;;;;;75.60;38.70;;;;;;;;;;4868017;29;20329;-95
2022/04/04 04:47:54;;;;;;;75.00;38.47;;;;;;;;;;4867867;29;20017;-94
2022/04/04 04:50:21;;;;;;;74.80;37.47;;;;;;;;;;4867910;29;20034;-96
2022/04/04 04:52:48;;;;;;;79.45;37.67;;;;;;;;;;4867631;29;20038;-94
2022/04/04 04:55:15;;;;;;;69.07;36.90;;;;;;;;;;4867571;29;20116;-95
2022/04/04 04:57:41;;;;;;;79.15;38.83;;;;;;;;;;4851254;29;20109;-94
2022/04/04 05:00:10;;;;;;;98.63;46.13;;;;;;;;;;4867442;29;20033;-96
2022/04/04 05:02:37;;;;;;;124.93;52.97;;;;;;;;;;4867706;29;20022;-95
2022/04/04 05:05:04;;;;;;;139.20;61.15;;;;;;;;;;4867365;29;20412;-94
2022/04/04 05:07:30;;;;;;;242.50;85.30;;;;;;;;;;4868069;29;20029;-95
2022/04/04 05:09:56;;;;;;;217.75;80.45;;;;;;;;;;4867261;29;20068;-94
2022/04/04 05:12:23;;;;;;;224.55;80.78;;;;;;;;;;4867471;29;20400;-94
2022/04/04 05:14:49;;;;;;;226.77;81.38;;;;;;;;;;4867320;29;20030;-95
2022/04/04 05:17:15;;;;;;;259.45;97.20;;;;;;;;;;4867057;29;20037;-94
2022/04/04 05:19:42;;;;;;;226.25;88.55;;;;;;;;;;4867367;29;20038;-94
2022/04/04 05:22:08;;;;;;;224.75;94.03;;;;;;;;;;4867162;29;20053;-94
2022/04/04 05:24:35;;;;;;;201.10;83.60;;;;;;;;;;4867035;29;20320;-94
2022/04/04 05:27:02;;;;;;;165.95;76.57;;;;;;;;;;4867021;29;20030;-96
2022/04/04 05:29:28;;;;;;;151.57;68.75;;;;;;;;;;4866925;29;20026;-95
2022/04/04 05:31:55;;;;;;;140.95;67.65;;;;;;;;;;4867141;29;20405;-93
2022/04/04 05:34:21;;;;;;;161.13;78.03;;;;;;;;;;4867299;29;20029;-95
2022/04/04 05:36:48;;;;;;;177.32;85.10;;;;;;;;;;4867160;29;20042;-96
2022/04/04 05:39:14;;;;;;;188.48;91.80;;;;;;;;;;4866661;29;20037;-95
2022/04/04 05:41:40;;;;;;;186.20;89.65;;;;;;;;;;4867146;29;20033;-95
2022/04/04 05:44:06;;;;;;;171.57;83.95;;;;;;;;;;4850457;29;20033;-94
2022/04/04 05:46:33;;;;;;;134.98;68.13;;;;;;;;;;4850403;29;20038;-94
2022/04/04 05:49:00;;;;;;;119.20;55.90;;;;;;;;;;4866775;29;20036;-94
2022/04/04 05:51:28;;;;;;;112.35;51.85;;;;;;;;;;4866827;29;20022;-94
2022/04/04 05:53:54;;;;;;;111.30;53.38;;;;;;;;;;4850448;29;20038;-95
2022/04/04 05:56:21;;;;;;;112.65;53.42;;;;;;;;;;4850647;29;20029;-94
2022/04/04 05:58:48;;;;;;;107.22;50.85;;;;;;;;;;4866754;29;20033;-96
2022/04/04 06:01:14;;;;;;;116.90;53.80;;;;;;;;;;4866498;29;20034;-93
2022/04/04 06:03:40;;;;;;;108.05;46.92;;;;;;;;;;4849923;29;20392;-93
2022/04/04 06:06:07;;;;;;;118.22;50.22;;;;;;;;;;4850234;29;20022;-94
2022/04/04 06:08:33;;;;;;;102.20;46.63;;;;;;;;;;4866409;29;20332;-94
2022/04/04 06:10:59;;;;;;;87.55;44.17;;;;;;;;;;4849622;29;20454;-95
2022/04/04 06:13:25;;;;;;;89.07;44.30;;;;;;;;;;4866272;29;20313;-93
2022/04/04 06:15:51;;;;;;;91.57;45.22;;;;;;;;;;4866658;29;20078;-95
2022/04/04 06:18:17;;;;;;;86.65;42.45;;;;;;;;;;4866380;29;20104;-95
2022/04/04 06:20:43;;;;;;;78.10;38.60;;;;;;;;;;4866352;29;20033;-95
2022/04/04 06:23:11;;;;;;;78.35;39.35;;;;;;;;;;4866158;29;20033;-93
2022/04/04 06:25:38;;;;;;;75.45;37.00;;;;;;;;;;4866046;29;20030;-94
2022/04/04 06:28:05;;;;;;;83.00;40.13;;;;;;;;;;4865937;29;20025;-95
2022/04/04 06:30:31;;;;;;;72.05;37.17;;;;;;;;;;4866060;29;20026;-93
2022/04/04 06:32:57;;;;;;;75.10;37.35;;;;;;;;;;4849835;29;20074;-95
2022/04/04 06:35:24;;;;;;;67.18;36.22;;;;;;;;;;4865768;29;20033;-94
2022/04/04 06:37:51;;;;;;;72.20;33.28;;;;;;;;;;4865786;29;20108;-95
2022/04/04 06:40:18;;;;;;;67.32;36.15;;;;;;;;;;4866098;29;20064;-95
2022/04/04 06:42:45;;;;;;;70.03;35.08;;;;;;;;;;4865769;29;20033;-94
2022/04/04 06:45:12;;;;;;;68.18;34.35;;;;;;;;;;4865218;29;20314;-93
2022/04/04 06:47:38;;;;;;;67.55;32.70;;;;;;;;;;4865785;29;20029;-95
2022/04/04 06:50:04;;;;;;;53.38;28.00;;;;;;;;;;4849535;29;20117;-94
2022/04/04 06:52:31;;;;;;;49.72;26.38;;;;;;;;;;4865613;29;20104;-95
2022/04/04 06:54:57;;;;;;;46.78;26.92;;;;;;;;;;4866317;29;20077;-91
2022/04/04 06:57:26;;;;;;;40.03;21.83;;;;;;;;;;4865649;29;20440;-94
2022/04/04 06:59:52;;;;;;;44.85;24.67;;;;;;;;;;4865447;29;20061;-96
2022/04/04 07:02:18;;;;;;;44.10;23.33;;;;;;;;;;4865288;29;20100;-94
2022/04/04 07:04:44;;;;;;;38.90;21.23;;;;;;;;;;4849003;29;20042;-94
2022/04/04 07:07:10;;;;;;;41.60;22.77;;;;;;;;;;4865896;29;20086;-94
2022/04/04 07:09:37;;;;;;;36.58;20.83;;;;;;;;;;4865217;29;20060;-94
2022/04/04 07:12:05;;;;;;;39.50;21.58;;;;;;;;;;4848982;29;20132;-96
2022/04/04 07:14:31;;;;;;;27.52;16.00;;;;;;;;;;4865304;29;20057;-94
2022/04/04 07:17:00;;;;;;;28.20;16.20;;;;;;;;;;4865426;29;20064;-94
2022/04/04 07:19:32;;;;;;;25.92;14.93;;;;;;;;;;4834254;29;20057;-95
2022/04/04 07:21:59;;;;;;;28.85;15.60;;;;;;;;;;4865215;29;20049;-95
2022/04/04 07:24:25;;;;;;;25.45;15.25;;;;;;;;;;4848827;29;20040;-95
2022/04/04 07:26:51;;;;;;;26.92;15.75;;;;;;;;;;4865129;29;20409;-95
2022/04/04 07:29:17;;;;;;;24.35;15.48;;;;;;;;;;4865025;29;20029;-94
2022/04/04 07:31:43;;;;;;;27.08;14.60;;;;;;;;;;4865150;29;20030;-94
2022/04/04 07:34:10;;;;;;;22.17;13.90;;;;;;;;;;4865444;29;20401;-94
2022/04/04 07:36:37;;;;;;;25.45;15.13;;;;;;;;;;4865509;29;20089;-96
2022/04/04 07:39:03;;;;;;;26.95;14.93;;;;;;;;;;4848918;29;20058;-94
2022/04/04 07:41:30;;;;;;;23.95;14.25;;;;;;;;;;4864856;29;20357;-94
2022/04/04 07:43:56;;;;;;;21.55;13.80;;;;;;;;;;4865188;29;20030;-96
2022/04/04 07:46:22;;;;;;;32.88;16.30;;;;;;;;;;4865178;29;20029;-95
2022/04/04 07:48:48;;;;;;;20.13;11.55;;;;;;;;;;4865181;29;20029;-93
2022/04/04 07:51:14;;;;;;;21.40;11.90;;;;;;;;;;4865066;29;20025;-94
2022/04/04 07:53:40;;;;;;;20.95;11.38;;;;;;;;;;4848633;29;20033;-93
2022/04/04 07:56:06;;;;;;;22.73;12.23;;;;;;;;;;4864580;29;20033;-93
2022/04/04 07:58:32;;;;;;;17.48;11.63;;;;;;;;;;4865120;29;20101;-95
2022/04/04 08:00:59;;;;;;;19.33;10.35;;;;;;;;;;4865053;29;20029;-93
2022/04/04 08:03:25;;;;;;;15.48;10.00;;;;;;;;;;4848726;29;20439;-95
2022/04/04 08:05:51;;;;;;;19.95;9.70;;;;;;;;;;4865117;29;20034;-93
2022/04/04 08:08:17;;;;;;;18.02;11.70;;;;;;;;;;4851956;29;20097;-93
2022/04/04 08:10:43;;;;;;;20.15;13.18;;;;;;;;;;4850788;29;20042;-90
2022/04/04 08:13:10;;;;;;;16.40;9.80;;;;;;;;;;4852126;29;20101;-91
2022/04/04 08:15:36;;;;;;;17.70;10.82;;;;;;;;;;4870482;29;20108;-90
2022/04/04 08:18:03;;;;;;;17.48;9.88;;;;;;;;;;4887326;29;20398;-92
2022/04/04 08:20:29;;;;;;;12.80;7.90;;;;;;;;;;4886888;29;20021;-92
2022/04/04 08:22:56;;;;;;;12.63;8.63;;;;;;;;;;4886804;29;20040;-93
2022/04/04 08:25:22;;;;;;;12.32;8.10;;;;;;;;;;4886884;29;20028;-94
2022/04/04 08:27:48;;;;;;;13.35;8.60;;;;;;;;;;4886534;29;20320;-95
2022/04/04 08:30:15;;;;;;;13.70;8.57;;;;;;;;;;4886909;29;20033;-93
2022/04/04 08:32:41;;;;;;;13.40;8.75;;;;;;;;;;4886845;29;20108;-94
2022/04/04 08:35:08;;;;;;;13.95;9.18;;;;;;;;;;4886881;29;20051;-92
2022/04/04 08:37:35;;;;;;;13.38;8.90;;;;;;;;;;4870122;29;20119;-93
2022/04/04 08:40:03;;;;;;;15.45;8.80;;;;;;;;;;4870269;29;20061;-93
2022/04/04 08:42:29;;;;;;;11.20;7.97;;;;;;;;;;4870315;29;20120;-92
2022/04/04 08:44:58;;;;;;;13.10;8.68;;;;;;;;;;4886193;29;20032;-94
2022/04/04 08:47:25;;;;;;;12.80;7.63;;;;;;;;;;4886296;29;20077;-93
2022/04/04 08:49:52;;;;;;;13.75;8.32;;;;;;;;;;4870469;29;20066;-93
2022/04/04 08:52:18;;;;;;;11.50;7.38;;;;;;;;;;4886421;29;20085;-93
2022/04/04 08:54:44;;;;;;;10.60;7.03;;;;;;;;;;4869892;29;20436;-95
2022/04/04 08:57:10;;;;;;;12.02;7.75;;;;;;;;;;4886189;29;20041;-94
2022/04/04 08:59:36;;;;;;;15.10;8.57;;;;;;;;;;4869650;29;20320;-95
2022/04/04 09:02:03;;;;;;;10.80;6.88;;;;;;;;;;4886003;29;20033;-94
2022/04/04 09:04:32;;;;;;;12.00;7.80;;;;;;;;;;4870572;29;20061;-94
2022/04/04 09:07:00;;;;;;;55.35;21.02;;;;;;;;;;4886306;29;20044;-94
2022/04/04 09:09:38;;;;;;;27.17;14.10;;;;;;;;;;4885800;29;20037;-95
2022/04/04 09:12:11;;;;;;;17.10;11.10;;;;;;;;;;4869613;29;20077;-94
2022/04/04 09:14:43;;;;;;;15.18;9.02;;;;;;;;;;4886129;29;20045;-93
2022/04/04 09:17:10;;;;;;;11.77;7.15;;;;;;;;;;4869538;29;20077;-94
2022/04/04 09:19:37;;;;;;;10.32;6.47;;;;;;;;;;4885402;29;20368;-95
2022/04/04 09:22:04;;;;;;;10.88;7.25;;;;;;;;;;4885931;29;20055;-94
2022/04/04 09:24:46;;;;;;;9.45;6.45;;;;;;;;;;4869216;29;20055;-94
2022/04/04 09:27:12;;;;;;;;;;;;;;;;;;4869770;29;20025;-95
2022/04/04 09:29:42;;;;;;;10.68;6.88;;;;;;;;;;4885975;29;20411;-93
2022/04/04 09:32:14;;;;;;;66.90;22.75;;;;;;;;;;4885902;29;20026;-95
2022/04/04 09:34:54;;;;;;;129.20;44.40;;;;;;;;;;4885797;29;20055;-95
2022/04/04 09:37:22;;;;;;;59.10;24.13;;;;;;;;;;4869227;29;20041;-92
2022/04/04 09:39:50;;;;;;;16.25;8.35;;;;;;;;;;4886177;29;20028;-94
2022/04/04 09:42:17;;;;;;;10.98;6.40;;;;;;;;;;4885212;29;20037;-95
2022/04/04 09:44:56;;;;;;;6.68;5.38;;;;;;;;;;4885630;29;20293;-94
2022/04/04 09:47:23;;;;;;;7.35;4.80;;;;;;;;;;4885488;29;20025;-96
2022/04/04 09:49:50;;;;;;;7.95;6.43;;;;;;;;;;4868709;29;20033;-93
2022/04/04 09:55:29;;;;;;;8.90;6.63;;;;;;;;;;4885454;29;20067;-95
2022/04/04 09:57:56;;;;;;;10.65;7.15;;;;;;;;;;4869234;29;20081;-96
2022/04/04 10:00:22;;;;;;;13.60;7.10;;;;;;;;;;4885392;29;20025;-96
2022/04/04 10:02:48;;;;;;;9.93;6.28;;;;;;;;;;4885045;29;20108;-94
2022/04/04 10:05:15;;;;;;;11.63;7.68;;;;;;;;;;4868606;29;20029;-93
2022/04/04 10:07:41;;;;;;;9.75;7.32;;;;;;;;;;4868492;29;20323;-94
2022/04/04 10:10:07;;;;;;;10.40;7.15;;;;;;;;;;4851922;29;20066;-94
2022/04/04 10:12:35;;;;;;;8.88;6.25;;;;;;;;;;4850281;29;20037;-93
2022/04/04 10:15:05;;;;;;;11.32;7.40;;;;;;;;;;4850154;29;20126;-95
2022/04/04 10:17:32;;;;;;;10.43;6.70;;;;;;;;;;4866327;29;20389;-94
2022/04/04 10:19:58;;;;;;;9.35;6.78;;;;;;;;;;4866250;29;20057;-94
2022/04/04 10:22:24;;;;;;;10.15;6.97;;;;;;;;;;4866206;29;20101;-94
2022/04/04 10:24:51;;;;;;;10.75;7.65;;;;;;;;;;4866238;29;20041;-93
2022/04/04 10:27:20;;;;;;;11.90;8.00;;;;;;;;;;4865803;29;20032;-93
2022/04/04 10:29:48;;;;;;;12.68;8.18;;;;;;;;;;4865475;29;20036;-93
2022/04/04 10:32:25;;;;;;;12.82;8.27;;;;;;;;;;4865974;29;20026;-92
2022/04/04 10:34:51;;;;;;;12.95;9.02;;;;;;;;;;4865819;29;20037;-93
2022/04/04 10:37:20;;;;;;;12.57;8.38;;;;;;;;;;4865898;29;20435;-94
2022/04/04 10:39:48;;;;;;;15.07;9.27;;;;;;;;;;4866075;29;20030;-95
2022/04/04 10:42:24;;;;;;;12.65;8.63;;;;;;;;;;4865676;29;20424;-93
2022/04/04 10:44:56;;;;;;;13.13;9.05;;;;;;;;;;4865641;29;20068;-92
2022/04/04 10:47:23;;;;;;;8.40;6.22;;;;;;;;;;4865645;29;20032;-93
2022/04/04 10:49:49;;;;;;;12.70;8.13;;;;;;;;;;4849333;29;20029;-94
2022/04/04 10:52:21;;;;;;;14.07;7.70;;;;;;;;;;4865220;29;20040;-93
2022/04/04 10:54:48;;;;;;;10.60;7.38;;;;;;;;;;4865572;29;20033;-93
2022/04/04 10:57:18;;;;;;;11.00;7.13;;;;;;;;;;4865651;29;20025;-92
2022/04/04 10:59:48;;;;;;;9.95;7.00;;;;;;;;;;4865715;29;20025;-93
2022/04/04 11:02:18;;;;;;;8.75;6.75;;;;;;;;;;4865419;29;20026;-93
2022/04/04 11:07:40;;;;;;;9.93;7.18;;;;;;;;;;4865706;29;20161;-93
2022/04/04 11:10:06;;;;;;;9.30;6.65;;;;;;;;;;4865325;29;20052;-93
2022/04/04 11:12:51;;;;;;;9.05;6.50;;;;;;;;;;4865411;29;20033;-95
2022/04/04 11:15:17;;;;;;;11.30;6.70;;;;;;;;;;4865664;29;20113;-92
2022/04/04 11:18:00;;;;;;;8.60;7.07;;;;;;;;;;4865264;29;20029;-93
2022/04/04 11:20:36;;;;;;;10.38;6.95;;;;;;;;;;4865275;29;20037;-93
2022/04/04 11:23:13;;;;;;;9.05;7.10;;;;;;;;;;4863588;29;20329;-93
2022/04/04 11:25:51;;;;;;;12.60;7.10;;;;;;;;;;4848975;29;20036;-94
2022/04/04 11:28:20;;;;;;;9.95;7.82;;;;;;;;;;4864976;29;20026;-94
2022/04/04 11:30:46;;;;;;;13.45;7.88;;;;;;;;;;4848904;29;20033;-93
2022/04/04 11:33:22;;;;;;;15.55;10.32;;;;;;;;;;4848982;29;20062;-93
2022/04/04 11:35:48;;;;;;;13.60;9.18;;;;;;;;;;4848780;29;20480;-93
2022/04/04 11:38:17;;;;;;;14.57;10.15;;;;;;;;;;4848815;29;20034;-93
2022/04/04 11:40:45;;;;;;;10.18;7.50;;;;;;;;;;4865232;29;20034;-93
2022/04/04 11:43:16;;;;;;;10.55;7.70;;;;;;;;;;4868641;29;20028;-93
2022/04/04 11:48:51;;;;;;;14.63;8.93;;;;;;;;;;4868934;29;20033;-95
2022/04/04 11:51:19;;;;;;;32.90;20.38;;;;;;;;;;4852669;29;20034;-95
2022/04/04 11:53:45;;;;;;;36.97;18.33;;;;;;;;;;4869124;29;20070;-94
2022/04/04 11:56:20;;;;;;;22.70;13.23;;;;;;;;;;4868545;29;20030;-93
2022/04/04 11:58:47;;;;;;;19.88;12.35;;;;;;;;;;4868660;29;20042;-94
2022/04/04 12:01:13;;;;;;;15.20;9.68;;;;;;;;;;4852607;29;20146;-93
2022/04/04 12:03:43;;;;;;;13.65;8.85;;;;;;;;;;4868458;29;20413;-95
2022/04/04 12:06:09;;;;;;;11.23;8.50;;;;;;;;;;4868434;29;20306;-94
2022/04/04 12:08:37;;;;;;;15.00;9.43;;;;;;;;;;4852162;29;20328;-93
2022/04/04 12:11:05;;;;;;;12.30;8.95;;;;;;;;;;4868373;29;20093;-93
2022/04/04 12:13:31;;;;;;;13.32;9.25;;;;;;;;;;4868555;29;20048;-93
2022/04/04 12:15:57;;;;;;;16.92;10.63;;;;;;;;;;4868391;29;20033;-94
2022/04/04 12:18:27;;;;;;;20.48;12.20;;;;;;;;;;4852380;29;20564;-93
2022/04/04 12:20:55;;;;;;;14.25;9.85;;;;;;;;;;4868342;29;20045;-92
2022/04/04 12:26:08;;;;;;;18.70;13.27;;;;;;;;;;4868651;29;20149;-94
2022/04/04 12:28:35;;;;;;;21.85;14.40;;;;;;;;;;4868107;29;20029;-93
2022/04/04 12:31:12;;;;;;;13.00;8.80;;;;;;;;;;4868058;29;20412;-94
2022/04/04 12:33:38;;;;;;;11.75;8.45;;;;;;;;;;4851733;29;20302;-92
2022/04/04 12:36:04;;;;;;;10.25;8.30;;;;;;;;;;4851823;29;20037;-93
2022/04/04 12:38:37;;;;;;;11.88;9.07;;;;;;;;;;4851839;29;20082;-93
2022/04/04 12:41:03;;;;;;;14.45;8.82;;;;;;;;;;4851596;29;20037;-93
2022/04/04 12:43:29;;;;;;;12.68;9.98;;;;;;;;;;4867816;29;20332;-93
2022/04/04 12:45:55;;;;;;;12.60;9.88;;;;;;;;;;4867949;29;20302;-93
2022/04/04 12:48:21;;;;;;;13.23;9.00;;;;;;;;;;4868196;29;20037;-94
2022/04/04 12:50:48;;;;;;;10.25;7.75;;;;;;;;;;4851691;29;20029;-91
2022/04/04 12:53:15;;;;;;;12.07;8.40;;;;;;;;;;4866942;29;20029;-90
2022/04/04 12:55:45;;;;;;;10.65;8.60;;;;;;;;;;4851568;29;20057;-87
2022/04/04 12:58:22;;;;;;;11.85;8.55;;;;;;;;;;4867623;29;20082;-92
2022/04/04 13:00:49;;;;;;;12.60;8.95;;;;;;;;;;4867828;29;20036;-94
2022/04/04 13:03:18;;;;;;;11.77;8.65;;;;;;;;;;4867713;29;20316;-92
2022/04/04 13:05:48;;;;;;;8.88;7.72;;;;;;;;;;4851694;29;20051;-95
2022/04/04 13:08:18;;;;;;;14.63;9.48;;;;;;;;;;4850967;29;20021;-95
2022/04/04 13:11:00;;;;;;;11.07;7.72;;;;;;;;;;4839705;29;20057;-94
2022/04/04 13:13:26;;;;;;;14.85;8.65;;;;;;;;;;4851296;29;20033;-95
2022/04/04 13:15:52;;;;;;;13.43;9.00;;;;;;;;;;4851217;29;20041;-94
2022/04/04 13:18:18;;;;;;;9.82;7.63;;;;;;;;;;4851252;29;20120;-95
2022/04/04 13:20:44;;;;;;;8.48;7.03;;;;;;;;;;4850908;29;20074;-94
2022/04/04 13:23:10;;;;;;;16.27;10.43;;;;;;;;;;4850665;29;20078;-93
2022/04/04 13:25:36;;;;;;;12.73;8.80;;;;;;;;;;4866926;29;20029;-93
2022/04/04 13:28:02;;;;;;;13.25;9.25;;;;;;;;;;4851149;29;20033;-94
2022/04/04 13:30:28;;;;;;;10.38;7.80;;;;;;;;;;4850765;29;20025;-94
2022/04/04 13:32:54;;;;;;;10.75;7.70;;;;;;;;;;4867088;29;20035;-94
2022/04/04 13:35:20;;;;;;;12.05;8.68;;;;;;;;;;4866845;29;20033;-94
2022/04/04 13:37:46;;;;;;;17.30;11.60;;;;;;;;;;4866884;29;20032;-94
2022/04/04 13:40:13;;;;;;;12.98;9.32;;;;;;;;;;4867061;29;20073;-94
2022/04/04 13:42:39;;;;;;;16.35;12.38;;;;;;;;;;4866930;29;20045;-93
2022/04/04 13:45:05;;;;;;;10.80;8.60;;;;;;;;;;4850579;29;20025;-94
2022/04/04 13:47:32;;;;;;;13.38;7.90;;;;;;;;;;4850878;29;20025;-94
2022/04/04 13:49:58;;;;;;;9.70;6.78;;;;;;;;;;4835685;29;20032;-94
2022/04/04 13:52:25;;;;;;;9.70;7.13;;;;;;;;;;4866922;29;20032;-96
2022/04/04 13:54:51;;;;;;;13.10;7.85;;;;;;;;;;4850520;29;20029;-93
2022/04/04 13:57:17;;;;;;;10.13;7.75;;;;;;;;;;4866528;29;20108;-92
2022/04/04 13:59:44;;;;;;;9.80;7.55;;;;;;;;;;4850456;29;20082;-94
2022/04/04 14:02:11;;;;;;;9.75;6.68;;;;;;;;;;4867169;29;20385;-91
2022/04/04 14:04:38;;;;;;;9.80;6.80;;;;;;;;;;4865550;29;20057;-94
2022/04/04 14:07:04;;;;;;;11.13;7.18;;;;;;;;;;4866147;29;20026;-94
2022/04/04 14:09:31;;;;;;;11.32;7.05;;;;;;;;;;4866130;29;20124;-95
2022/04/04 14:11:57;;;;;;;12.40;8.70;;;;;;;;;;4866062;29;20026;-94
2022/04/04 14:14:24;;;;;;;14.27;9.05;;;;;;;;;;4866028;29;20037;-93
2022/04/04 14:16:50;;;;;;;9.43;7.07;;;;;;;;;;4866395;29;20113;-93
2022/04/04 14:19:17;;;;;;;8.23;7.00;;;;;;;;;;4849973;29;20041;-94
2022/04/04 14:21:43;;;;;;;11.50;7.82;;;;;;;;;;4866582;29;20077;-94
2022/04/04 14:24:09;;;;;;;15.23;9.85;;;;;;;;;;4850047;29;20370;-94
2022/04/04 14:26:35;;;;;;;11.38;7.93;;;;;;;;;;4849735;29;20041;-95
2022/04/04 14:29:01;;;;;;;10.68;7.40;;;;;;;;;;4849820;29;20026;-94
2022/04/04 14:31:29;;;;;;;12.73;8.27;;;;;;;;;;4867795;29;20033;-93
2022/04/04 14:33:58;;;;;;;11.13;8.30;;;;;;;;;;4850411;29;20030;-95
2022/04/04 14:36:24;;;;;;;20.55;11.48;;;;;;;;;;4849814;29;20042;-93
2022/04/04 14:38:51;;;;;;;10.00;7.70;;;;;;;;;;4868309;29;20037;-94
2022/04/04 14:41:17;;;;;;;8.80;6.80;;;;;;;;;;4866032;29;20395;-94
2022/04/04 14:43:44;;;;;;;12.18;7.43;;;;;;;;;;4852141;29;20037;-95
2022/04/04 14:46:14;;;;;;;14.98;9.57;;;;;;;;;;4853513;29;20041;-96
2022/04/04 14:48:52;;;;;;;18.38;10.63;;;;;;;;;;4857865;29;20042;-96
2022/04/04 14:51:22;;;;;;;20.67;10.95;;;;;;;;;;4914948;23;20053;-95
2022/04/04 14:54:46;;;;;;;15.20;8.68;;;;;;;;;;4900293;23;20049;-96
2022/04/04 14:57:31;;;;;;;18.52;10.35;;;;;;;;;;4889996;29;20043;-95
2022/04/04 14:59:58;;;;;;;13.13;9.05;;;;;;;;;;5137161;23;20378;-96
2022/04/04 15:02:24;;;;;;;13.50;8.65;;;;;;;;;;4891035;29;20036;-95
2022/04/04 15:04:53;;;;;;;17.55;10.75;;;;;;;;;;4895323;29;20029;-96
2022/04/04 15:07:22;;;;;;;12.18;8.50;;;;;;;;;;4867526;29;20053;-96
2022/04/04 15:09:50;;;;;;;17.85;8.32;;;;;;;;;;4887954;29;20021;-95
2022/04/04 15:12:16;;;;;;;13.93;8.38;;;;;;;;;;4886238;29;20045;-96
2022/04/04 15:14:42;;;;;;;13.93;8.32;;;;;;;;;;4871258;29;20070;-95
2022/04/04 15:17:08;;;;;;;14.77;8.10;;;;;;;;;;4889457;29;20029;-96
2022/04/04 15:19:34;;;;;;;19.70;11.10;;;;;;;;;;4873398;29;20044;-96
2022/04/04 15:22:01;;;;;;;16.23;11.18;;;;;;;;;;4889330;29;20033;-96
2022/04/04 15:24:28;;;;;;;18.92;11.90;;;;;;;;;;4889781;29;20044;-95
2022/04/04 15:26:54;;;;;;;16.75;11.48;;;;;;;;;;4873075;29;20057;-96
2022/04/04 15:29:20;;;;;;;24.80;12.65;;;;;;;;;;4887847;29;20029;-96
2022/04/04 15:31:46;;;;;;;15.57;11.15;;;;;;;;;;4888368;29;20029;-93
2022/04/04 15:34:12;;;;;;;18.13;12.52;;;;;;;;;;4871886;29;20124;-96
2022/04/04 15:36:39;;;;;;;16.83;11.98;;;;;;;;;;4891502;29;20387;-96
2022/04/04 15:39:11;;;;;;;14.88;11.45;;;;;;;;;;4903278;23;20052;-96
2022/04/04 15:41:37;;;;;;;21.33;12.00;;;;;;;;;;4897079;29;20017;-94
2022/04/04 15:44:23;;;;;;;15.70;11.85;;;;;;;;;;4896842;29;20036;-96
2022/04/04 15:52:27;;;;;;;26.30;16.33;;;;;;;;;;5070041;23;20060;-96
2022/04/04 16:00:11;;;;;;;17.02;12.60;;;;;;;;;;5042386;23;20045;-95
2022/04/04 16:02:44;;;;;;;18.95;12.77;;;;;;;;;;4901542;29;20049;-96
2022/04/04 16:05:15;;;;;;;17.17;11.98;;;;;;;;;;5060293;23;20053;-96
2022/04/04 16:07:41;;;;;;;16.25;12.13;;;;;;;;;;4897498;29;20033;-96